createdAt,value
2023-01-23T00:01:31.080Z,2.37
2023-01-23T00:03:59.325Z,2.00
2023-01-23T00:06:29.066Z,2.27
2023-01-23T00:08:57.413Z,2.30
2023-01-23T00:11:30.127Z,2.20
2023-01-23T00:13:58.446Z,2.20
2023-01-23T00:16:27.885Z,2.00
2023-01-23T00:18:56.005Z,2.50
2023-01-23T00:21:25.752Z,2.20
2023-01-23T00:23:56.720Z,2.07
2023-01-23T00:26:26.483Z,2.40
2023-01-23T00:28:55.650Z,2.47
2023-01-23T00:31:25.667Z,2.33
2023-01-23T00:33:55.754Z,2.43
2023-01-23T00:36:24.593Z,2.20
2023-01-23T00:38:52.471Z,2.00
2023-01-23T00:41:21.689Z,2.20
2023-01-23T00:43:51.858Z,2.10
2023-01-23T00:46:20.162Z,1.90
2023-01-23T00:48:48.239Z,2.03
2023-01-23T00:51:16.465Z,2.40
2023-01-23T00:53:44.376Z,1.70
2023-01-23T00:56:12.892Z,1.80
2023-01-23T00:58:44.168Z,2.17
2023-01-23T01:01:13.928Z,1.87
2023-01-23T01:03:41.899Z,2.07
2023-01-23T01:06:10.347Z,2.10
2023-01-23T01:08:38.476Z,2.20
2023-01-23T01:11:06.989Z,2.00
2023-01-23T01:13:35.007Z,2.03
2023-01-23T01:16:04.638Z,2.17
2023-01-23T01:18:32.507Z,2.27
2023-01-23T01:21:00.816Z,1.90
2023-01-23T01:23:28.741Z,2.00
2023-01-23T01:26:00.423Z,2.00
2023-01-23T01:28:30.404Z,2.17
2023-01-23T01:30:58.684Z,2.10
2023-01-23T01:33:28.349Z,2.30
2023-01-23T01:35:56.903Z,2.30
2023-01-23T01:38:25.009Z,2.00
2023-01-23T01:40:52.841Z,2.27
2023-01-23T01:43:24.159Z,1.80
2023-01-23T01:46:19.772Z,1.77
2023-01-23T01:48:58.055Z,1.70
2023-01-23T01:51:30.528Z,1.90
2023-01-23T01:54:05.664Z,1.93
2023-01-23T01:56:38.420Z,1.80
2023-01-23T01:59:07.807Z,1.90
2023-01-23T02:01:36.257Z,2.10
2023-01-23T02:04:05.959Z,2.30
2023-01-23T02:06:34.197Z,2.00
2023-01-23T02:09:07.355Z,2.20
2023-01-23T02:11:35.312Z,2.27
2023-01-23T02:14:03.150Z,2.10
2023-01-23T02:16:40.369Z,2.27
2023-01-23T02:19:29.370Z,2.43
2023-01-23T02:22:08.720Z,2.47
2023-01-23T02:24:43.102Z,2.27
2023-01-23T02:27:12.548Z,2.50
2023-01-23T02:29:45.109Z,2.50
2023-01-23T02:32:12.971Z,2.67
2023-01-23T02:34:42.133Z,2.40
2023-01-23T02:37:10.724Z,2.63
2023-01-23T02:39:40.756Z,2.90
2023-01-23T02:42:09.468Z,2.90
2023-01-23T02:44:38.693Z,2.60
2023-01-23T02:47:12.445Z,3.20
2023-01-23T02:49:40.435Z,3.53
2023-01-23T02:52:09.727Z,2.90
2023-01-23T02:54:38.050Z,2.87
2023-01-23T02:57:05.906Z,2.90
2023-01-23T03:00:05.586Z,2.87
2023-01-23T03:02:34.814Z,3.00
2023-01-23T03:05:02.648Z,3.00
2023-01-23T03:07:30.558Z,2.80
2023-01-23T03:09:58.470Z,3.10
2023-01-23T03:12:26.392Z,3.50
2023-01-23T03:14:56.154Z,3.30
2023-01-23T03:17:24.578Z,3.30
2023-01-23T03:19:53.901Z,3.40
2023-01-23T03:22:21.928Z,3.60
2023-01-23T03:24:49.781Z,3.50
2023-01-23T03:27:18.020Z,3.60
2023-01-23T03:30:03.789Z,3.60
2023-01-23T03:32:31.666Z,3.40
2023-01-23T03:35:00.967Z,4.03
2023-01-23T03:37:28.984Z,3.50
2023-01-23T03:40:13.967Z,3.53
2023-01-23T03:42:42.001Z,3.50
2023-01-23T03:45:10.598Z,3.83
2023-01-23T03:47:38.582Z,3.77
2023-01-23T03:50:09.464Z,3.47
2023-01-23T03:52:37.984Z,4.00
2023-01-23T03:55:06.697Z,3.93
2023-01-23T03:57:34.515Z,4.30
2023-01-23T04:00:02.351Z,3.70
2023-01-23T04:02:30.330Z,4.00
2023-01-23T04:04:58.280Z,3.70
2023-01-23T04:07:27.516Z,3.93
2023-01-23T04:09:55.396Z,3.40
2023-01-23T04:12:23.254Z,3.90
2023-01-23T04:14:51.062Z,3.80
2023-01-23T04:17:18.911Z,4.53
2023-01-23T04:19:46.900Z,3.90
2023-01-23T04:22:14.698Z,4.20
2023-01-23T04:24:43.903Z,4.37
2023-01-23T04:27:11.871Z,4.10
2023-01-23T04:29:39.675Z,3.60
2023-01-23T04:32:09.578Z,4.10
2023-01-23T04:34:37.458Z,3.70
2023-01-23T04:37:05.261Z,3.77
2023-01-23T04:39:33.898Z,3.80
2023-01-23T04:42:03.101Z,3.90
2023-01-23T04:44:31.216Z,3.73
2023-01-23T04:47:00.125Z,4.10
2023-01-23T04:49:28.405Z,3.97
2023-01-23T04:51:56.297Z,4.00
2023-01-23T04:54:24.181Z,4.00
2023-01-23T04:56:52.142Z,3.70
2023-01-23T04:59:21.641Z,3.73
2023-01-23T05:01:49.489Z,4.10
2023-01-23T05:04:17.351Z,3.77
2023-01-23T05:06:45.126Z,4.00
2023-01-23T05:09:13.554Z,4.13
2023-01-23T05:11:41.471Z,4.17
2023-01-23T05:14:09.286Z,4.40
2023-01-23T05:16:38.476Z,4.27
2023-01-23T05:19:06.362Z,4.40
2023-01-23T05:21:34.263Z,4.37
2023-01-23T05:24:02.077Z,4.30
2023-01-23T05:26:30.004Z,4.63
2023-01-23T05:28:57.832Z,5.10
2023-01-23T05:31:25.908Z,4.37
2023-01-23T05:33:55.494Z,4.60
2023-01-23T05:36:26.283Z,5.00
2023-01-23T05:38:56.255Z,4.63
2023-01-23T05:41:25.659Z,4.53
2023-01-23T05:43:53.639Z,4.67
2023-01-23T05:46:21.573Z,4.83
2023-01-23T05:48:52.683Z,4.97
2023-01-23T05:51:23.454Z,5.37
2023-01-23T05:53:51.429Z,4.93
2023-01-23T05:56:21.623Z,5.37
2023-01-23T05:58:49.737Z,5.37
2023-01-23T06:01:17.977Z,5.23
2023-01-23T06:03:45.803Z,4.80
2023-01-23T06:06:13.744Z,4.83
2023-01-23T06:08:42.987Z,5.43
2023-01-23T06:11:12.670Z,5.60
2023-01-23T06:13:40.623Z,5.80
2023-01-23T06:16:10.774Z,5.30
2023-01-23T06:18:40.592Z,5.63
2023-01-23T06:21:08.622Z,5.90
2023-01-23T06:23:36.461Z,5.47
2023-01-23T06:26:06.908Z,5.57
2023-01-23T06:28:37.647Z,5.50
2023-01-23T06:31:07.302Z,6.00
2023-01-23T06:33:36.782Z,5.93
2023-01-23T06:36:07.699Z,5.57
2023-01-23T06:38:37.170Z,5.63
2023-01-23T06:41:06.732Z,5.30
2023-01-23T06:43:34.821Z,6.60
2023-01-23T06:46:05.448Z,6.63
2023-01-23T06:48:33.423Z,6.17
2023-01-23T06:51:01.850Z,6.10
2023-01-23T06:53:30.584Z,6.33
2023-01-23T06:56:05.938Z,7.13
2023-01-23T06:58:43.404Z,6.60
2023-01-23T07:01:14.649Z,6.73
2023-01-23T07:03:45.963Z,5.50
2023-01-23T07:06:18.186Z,6.40
2023-01-23T07:08:46.166Z,6.00
2023-01-23T07:11:17.235Z,9.23
2023-01-23T07:13:47.956Z,7.20
2023-01-23T07:16:16.701Z,6.50
2023-01-23T07:18:53.449Z,6.20
2023-01-23T07:21:21.364Z,6.50
2023-01-23T07:23:50.964Z,7.20
2023-01-23T07:26:21.801Z,6.57
2023-01-23T07:28:52.953Z,6.90
2023-01-23T07:31:21.363Z,6.67
2023-01-23T07:33:49.490Z,6.40
2023-01-23T07:36:19.971Z,7.10
2023-01-23T07:38:47.939Z,8.40
2023-01-23T07:41:18.528Z,8.00
2023-01-23T07:43:46.491Z,7.70
2023-01-23T07:46:15.977Z,7.07
2023-01-23T07:48:43.934Z,7.57
2023-01-23T07:51:11.924Z,7.70
2023-01-23T07:53:40.101Z,8.10
2023-01-23T07:56:09.429Z,7.83
2023-01-23T07:58:39.216Z,6.93
2023-01-23T08:01:10.742Z,7.30
2023-01-23T08:03:40.142Z,6.97
2023-01-23T08:06:08.809Z,7.00
2023-01-23T08:08:36.663Z,7.20
2023-01-23T08:11:06.773Z,7.20
2023-01-23T08:13:34.901Z,7.50
2023-01-23T08:16:03.303Z,7.63
2023-01-23T08:18:32.173Z,6.87
2023-01-23T08:21:03.386Z,7.47
2023-01-23T08:23:32.943Z,7.20
2023-01-23T08:26:03.671Z,6.70
2023-01-23T08:28:31.627Z,7.80
2023-01-23T08:31:06.433Z,7.60
2023-01-23T08:33:35.520Z,6.90
2023-01-23T08:36:06.569Z,7.97
2023-01-23T08:38:37.602Z,7.83
2023-01-23T08:41:10.096Z,7.77
2023-01-23T08:43:38.929Z,7.83
2023-01-23T08:46:07.164Z,9.03
2023-01-23T08:48:35.624Z,8.00
2023-01-23T08:51:07.881Z,8.03
2023-01-23T08:53:36.450Z,7.47
2023-01-23T08:56:06.432Z,7.53
2023-01-23T08:58:34.675Z,7.13
2023-01-23T09:01:03.271Z,7.47
2023-01-23T09:03:31.535Z,7.93
2023-01-23T09:06:03.139Z,7.87
2023-01-23T09:08:33.215Z,7.33
2023-01-23T09:11:05.106Z,7.60
2023-01-23T09:13:33.817Z,7.90
2023-01-23T09:16:02.242Z,8.50
2023-01-23T09:18:32.536Z,8.03
2023-01-23T09:21:01.893Z,8.03
2023-01-23T09:23:29.799Z,8.57
2023-01-23T09:26:06.473Z,8.63
2023-01-23T09:28:34.411Z,7.87
2023-01-23T09:31:11.481Z,8.47
2023-01-23T09:33:39.430Z,8.73
2023-01-23T09:36:08.861Z,7.30
2023-01-23T09:38:36.944Z,8.83
2023-01-23T09:41:12.932Z,8.13
2023-01-23T09:43:47.832Z,7.97
2023-01-23T09:46:22.697Z,7.57
2023-01-23T09:48:58.332Z,7.53
2023-01-23T09:51:30.449Z,8.70
2023-01-23T09:54:03.616Z,8.13
2023-01-23T09:56:37.580Z,8.53
2023-01-23T09:59:14.734Z,8.30
2023-01-23T10:01:42.547Z,9.43
2023-01-23T10:04:13.600Z,9.07
2023-01-23T10:07:11.469Z,9.47
2023-01-23T10:09:55.082Z,9.30
2023-01-23T10:12:39.127Z,8.80
2023-01-23T10:15:30.436Z,9.33
2023-01-23T10:18:09.747Z,9.43
2023-01-23T10:20:52.206Z,9.57
2023-01-23T10:23:39.093Z,10.23
2023-01-23T10:26:16.420Z,9.47
2023-01-23T10:28:47.247Z,9.90
2023-01-23T10:31:25.020Z,9.43
2023-01-23T10:34:02.569Z,10.53
2023-01-23T10:36:48.000Z,9.27
2023-01-23T10:39:27.580Z,10.17
2023-01-23T10:42:02.531Z,11.00
2023-01-23T10:44:32.285Z,10.30
2023-01-23T10:47:13.450Z,10.30
2023-01-23T10:49:47.264Z,10.27
2023-01-23T10:52:31.621Z,10.87
2023-01-23T10:55:01.187Z,10.90
2023-01-23T10:57:31.355Z,10.10
2023-01-23T11:00:05.266Z,10.13
2023-01-23T11:02:37.262Z,9.73
2023-01-23T11:05:27.870Z,9.87
2023-01-23T11:07:57.975Z,9.83
2023-01-23T11:10:28.668Z,10.23
2023-01-23T11:13:00.846Z,9.60
2023-01-23T11:15:32.429Z,10.40
2023-01-23T11:18:02.687Z,10.00
2023-01-23T11:20:33.813Z,10.13
2023-01-23T11:23:05.271Z,10.20
2023-01-23T11:25:35.247Z,10.10
2023-01-23T11:28:05.581Z,9.80
2023-01-23T11:30:42.535Z,10.07
2023-01-23T11:33:33.300Z,9.70
2023-01-23T11:36:08.151Z,11.30
2023-01-23T11:38:51.342Z,10.57
2023-01-23T11:41:20.629Z,10.90
2023-01-23T11:43:48.473Z,10.23
2023-01-23T11:46:30.414Z,11.13
2023-01-23T11:49:17.113Z,11.50
2023-01-23T11:52:00.034Z,10.03
2023-01-23T11:54:49.075Z,10.90
2023-01-23T11:57:30.572Z,10.20
2023-01-23T12:00:23.965Z,10.77
2023-01-23T12:03:18.040Z,10.50
2023-01-23T12:06:20.025Z,10.03
2023-01-23T12:08:57.064Z,10.00
2023-01-23T12:11:28.399Z,9.90
2023-01-23T12:14:17.173Z,10.13
2023-01-23T12:17:12.221Z,9.83
2023-01-23T12:20:21.151Z,11.20
2023-01-23T12:23:03.423Z,10.90
2023-01-23T12:25:37.716Z,10.37
2023-01-23T12:28:18.125Z,10.87
2023-01-23T12:31:10.683Z,11.00
2023-01-23T12:34:09.071Z,10.67
2023-01-23T12:37:12.118Z,10.57
2023-01-23T12:40:01.447Z,10.60
2023-01-23T12:42:35.210Z,11.17
2023-01-23T12:45:13.766Z,11.37
2023-01-23T12:47:48.853Z,11.57
2023-01-23T12:50:26.677Z,10.63
2023-01-23T12:53:01.107Z,10.87
2023-01-23T12:55:34.579Z,9.90
2023-01-23T12:58:08.962Z,11.90
2023-01-23T13:00:53.866Z,11.37
2023-01-23T13:03:44.970Z,10.70
2023-01-23T13:06:28.291Z,11.40
2023-01-23T13:09:17.367Z,11.37
2023-01-23T13:11:57.291Z,11.47
2023-01-23T13:15:00.609Z,13.17
2023-01-23T13:17:39.863Z,12.17
2023-01-23T13:20:40.652Z,13.23
2023-01-23T13:23:27.781Z,12.70
2023-01-23T13:26:31.391Z,11.37
2023-01-23T13:29:05.360Z,14.20
2023-01-23T13:31:42.419Z,11.00
2023-01-23T13:34:37.934Z,14.37
2023-01-23T13:37:40.831Z,11.57
2023-01-23T13:40:16.231Z,11.57
2023-01-23T13:42:44.226Z,11.57
2023-01-23T13:45:32.141Z,10.87
2023-01-23T14:23:00.706Z,10.00
2023-01-23T14:25:28.666Z,10.10
2023-01-23T14:28:07.331Z,10.67
2023-01-23T14:30:35.696Z,9.87
2023-01-23T14:33:15.114Z,10.07
2023-01-23T14:35:45.398Z,10.50
2023-01-23T14:38:21.638Z,10.60
2023-01-23T14:40:51.265Z,10.90
2023-01-23T14:43:22.989Z,10.07
2023-01-23T14:46:02.450Z,11.77
2023-01-23T14:48:34.945Z,11.37
2023-01-23T14:51:21.401Z,11.20
2023-01-23T14:53:55.780Z,11.93
2023-01-23T14:56:28.822Z,11.67
2023-01-23T14:58:59.872Z,11.77
2023-01-23T15:01:31.157Z,16.30
2023-01-23T15:04:02.279Z,11.67
2023-01-23T15:06:34.970Z,11.87
2023-01-23T15:09:16.614Z,12.83
2023-01-23T15:11:45.294Z,11.37
2023-01-23T15:14:26.268Z,14.03
2023-01-23T15:17:01.736Z,12.27
2023-01-23T15:19:30.499Z,12.00
2023-01-23T15:22:20.911Z,13.27
2023-01-23T15:24:49.831Z,11.57
2023-01-23T15:27:32.253Z,13.10
2023-01-23T15:30:32.261Z,12.37
2023-01-23T15:33:06.212Z,12.03
2023-01-23T15:35:35.595Z,12.63
2023-01-23T15:38:08.643Z,12.70
2023-01-23T15:40:38.260Z,12.23
2023-01-23T15:43:10.810Z,12.67
2023-01-23T15:45:38.715Z,12.07
2023-01-23T15:48:07.870Z,11.80
2023-01-23T15:50:36.604Z,12.10
2023-01-23T15:53:12.563Z,12.17
2023-01-23T15:55:41.023Z,11.80
2023-01-23T15:58:12.959Z,12.67
2023-01-23T16:00:41.226Z,14.60
2023-01-23T16:03:09.037Z,14.23
2023-01-23T16:05:38.435Z,14.90
2023-01-23T16:08:19.084Z,12.73
2023-01-23T16:10:47.613Z,12.07
2023-01-23T16:13:15.438Z,13.20
2023-01-23T16:15:49.631Z,11.37
2023-01-23T16:18:18.802Z,11.77
2023-01-23T16:20:48.378Z,13.03
2023-01-23T16:23:24.727Z,13.00
2023-01-23T16:25:53.210Z,13.00
2023-01-23T16:28:26.603Z,12.40
2023-01-23T16:30:54.920Z,11.97
2023-01-23T16:33:23.131Z,13.17
2023-01-23T16:35:52.556Z,13.90
2023-01-23T16:38:25.456Z,12.57
2023-01-23T16:40:55.040Z,12.77
2023-01-23T16:43:23.774Z,13.17
2023-01-23T16:45:56.211Z,12.73
2023-01-23T16:48:27.716Z,14.77
2023-01-23T16:51:00.176Z,13.23
2023-01-23T16:53:31.228Z,13.33
2023-01-23T16:56:02.719Z,12.90
2023-01-23T16:58:33.458Z,13.80
2023-01-23T17:01:04.289Z,13.97
2023-01-23T17:03:35.443Z,14.13
2023-01-23T17:06:08.306Z,14.00
2023-01-23T17:08:37.811Z,13.80
2023-01-23T17:11:06.972Z,13.60
2023-01-23T17:13:35.930Z,13.20
2023-01-23T17:16:10.598Z,13.90
2023-01-23T17:18:43.413Z,14.90
2023-01-23T17:21:18.377Z,14.83
2023-01-23T17:23:48.143Z,14.00
2023-01-23T17:26:18.757Z,13.93
2023-01-23T17:28:46.593Z,13.53
2023-01-23T17:31:20.523Z,14.03
2023-01-23T17:33:52.313Z,13.13
2023-01-23T17:36:20.609Z,13.27
2023-01-23T17:38:58.681Z,14.27
2023-01-23T17:41:26.945Z,14.07
2023-01-23T17:43:57.827Z,14.33
2023-01-23T17:46:27.819Z,13.30
2023-01-23T17:48:56.952Z,12.93
2023-01-23T17:51:26.600Z,14.27
2023-01-23T17:53:56.188Z,15.20
2023-01-23T17:56:27.099Z,15.57
2023-01-23T17:58:54.910Z,15.00
2023-01-23T18:01:26.061Z,14.63
2023-01-23T18:03:54.819Z,15.27
2023-01-23T18:06:22.786Z,14.67
2023-01-23T18:08:50.734Z,15.70
2023-01-23T18:11:22.544Z,15.67
2023-01-23T18:14:16.499Z,15.27
2023-01-23T18:16:48.113Z,14.77
2023-01-23T18:19:18.478Z,15.90
2023-01-23T18:21:48.449Z,15.00
2023-01-23T18:24:25.030Z,15.40
2023-01-23T18:26:59.573Z,14.93
2023-01-23T18:29:44.246Z,15.23
2023-01-23T18:32:38.859Z,16.27
2023-01-23T18:35:22.841Z,16.50
2023-01-23T18:37:58.913Z,14.77
2023-01-23T18:40:33.750Z,15.77
2023-01-23T18:43:14.737Z,14.83
2023-01-23T18:45:45.820Z,16.20
2023-01-23T18:48:24.662Z,17.10
2023-01-23T18:51:06.397Z,16.23
2023-01-23T18:53:46.835Z,16.43
2023-01-23T18:56:23.417Z,16.27
2023-01-23T18:59:11.488Z,15.43
2023-01-23T19:01:52.203Z,15.80
2023-01-23T19:04:26.039Z,16.33
2023-01-23T19:06:54.611Z,17.07
2023-01-23T19:09:25.384Z,15.80
2023-01-23T19:12:25.302Z,15.37
2023-01-23T19:15:21.574Z,16.23
2023-01-23T19:17:55.198Z,16.93
2023-01-23T19:20:35.997Z,16.40
2023-01-23T19:23:23.616Z,16.57
2023-01-23T19:25:53.967Z,16.67
2023-01-23T19:28:22.233Z,16.23
2023-01-23T19:30:52.575Z,17.07
2023-01-23T19:33:23.791Z,15.67
2023-01-23T19:35:54.991Z,16.40
2023-01-23T19:38:23.644Z,16.20
2023-01-23T19:40:51.615Z,17.20
2023-01-23T19:43:21.136Z,17.30
2023-01-23T19:45:54.580Z,16.10
2023-01-23T19:48:23.918Z,15.73
2023-01-23T19:50:51.937Z,15.73
2023-01-23T19:53:22.206Z,17.53
2023-01-23T19:55:53.051Z,16.43
2023-01-23T19:58:21.936Z,17.83
2023-01-23T20:00:49.886Z,17.43
2023-01-23T20:03:17.873Z,17.13
2023-01-23T20:05:47.129Z,16.83
2023-01-23T20:08:18.123Z,16.83
2023-01-23T20:10:45.991Z,16.43
2023-01-23T20:13:17.373Z,16.20
2023-01-23T20:15:45.360Z,17.47
2023-01-23T20:18:13.477Z,16.23
2023-01-23T20:20:44.155Z,16.77
2023-01-23T20:23:14.259Z,16.83
2023-01-23T20:25:43.946Z,16.70
2023-01-23T20:28:14.198Z,17.03
2023-01-23T20:30:42.052Z,16.30
2023-01-23T20:33:09.960Z,17.67
2023-01-23T20:35:39.465Z,17.07
2023-01-23T20:38:07.317Z,16.93
2023-01-23T20:40:36.777Z,17.67
2023-01-23T20:43:07.075Z,18.00
2023-01-23T20:45:34.909Z,18.03
2023-01-23T20:48:02.737Z,17.87
2023-01-23T20:50:30.733Z,16.80
2023-01-23T20:53:16.313Z,17.87
2023-01-23T20:55:45.485Z,17.40
2023-01-23T20:58:30.852Z,19.07
2023-01-23T21:00:58.710Z,17.70
2023-01-23T21:03:26.749Z,18.80
2023-01-23T21:05:54.538Z,19.17
2023-01-23T21:08:23.048Z,19.17
2023-01-23T21:10:53.942Z,17.87
2023-01-23T21:13:22.488Z,18.40
2023-01-23T21:16:00.050Z,19.87
2023-01-23T21:18:30.618Z,17.30
2023-01-23T21:21:04.348Z,18.37
2023-01-23T21:23:32.233Z,18.23
2023-01-23T21:26:02.578Z,18.90
2023-01-23T21:28:32.378Z,18.63
2023-01-23T21:31:00.869Z,19.77
2023-01-23T21:33:28.743Z,19.17
2023-01-23T21:35:56.830Z,18.97
2023-01-23T21:38:25.072Z,18.13
2023-01-23T21:40:54.799Z,19.13
2023-01-23T21:43:24.389Z,19.97
2023-01-23T21:45:57.040Z,18.37
2023-01-23T21:48:25.708Z,18.53
2023-01-23T21:51:05.684Z,18.53
2023-01-23T21:53:36.195Z,18.70
2023-01-23T21:56:05.697Z,19.27
2023-01-23T21:58:37.231Z,19.87
2023-01-23T22:01:25.044Z,19.70
2023-01-23T22:03:53.619Z,18.43
2023-01-23T22:06:21.472Z,17.60
2023-01-23T22:08:51.567Z,17.97
2023-01-23T22:11:19.560Z,19.53
2023-01-23T22:13:48.973Z,18.20
2023-01-23T22:16:16.965Z,19.47
2023-01-23T22:18:47.737Z,19.40
2023-01-23T22:21:15.781Z,20.10
2023-01-23T22:23:43.800Z,19.33
2023-01-23T22:26:14.951Z,18.00
2023-01-23T22:28:42.850Z,18.00
2023-01-23T22:31:15.981Z,17.93
2023-01-23T22:33:45.774Z,19.33
2023-01-23T22:36:17.824Z,20.83
2023-01-23T22:38:54.390Z,18.70
2023-01-23T22:41:23.286Z,20.97
2023-01-23T22:43:54.267Z,19.13
2023-01-23T22:46:24.284Z,18.00
2023-01-23T22:48:52.893Z,18.87
2023-01-23T22:51:25.906Z,19.17
2023-01-23T22:53:53.929Z,17.33
2023-01-23T22:56:24.633Z,18.53
2023-01-23T22:58:57.217Z,21.60
2023-01-23T23:01:27.599Z,19.17
2023-01-23T23:03:57.650Z,18.70
2023-01-23T23:06:28.792Z,18.97
2023-01-23T23:08:56.952Z,18.20
2023-01-23T23:11:26.708Z,18.87
2023-01-23T23:13:57.779Z,17.77
2023-01-23T23:16:31.231Z,18.17
2023-01-23T23:19:01.305Z,18.43
2023-01-23T23:21:33.003Z,17.70
2023-01-23T23:24:01.713Z,18.77
2023-01-23T23:26:31.392Z,17.37
2023-01-23T23:29:00.510Z,17.63
2023-01-23T23:31:30.764Z,17.50
2023-01-23T23:33:58.925Z,17.70
2023-01-23T23:36:27.122Z,17.13
2023-01-23T23:38:55.223Z,18.00
2023-01-23T23:41:24.454Z,16.43
2023-01-23T23:43:55.537Z,18.97
2023-01-23T23:46:23.334Z,17.17
2023-01-23T23:48:54.887Z,17.33
2023-01-23T23:51:28.089Z,17.43
2023-01-23T23:53:56.162Z,17.53
2023-01-23T23:56:26.146Z,17.23
2023-01-23T23:58:54.369Z,17.77
